sensor_id;sensor_type;location;lat;lon;timestamp;pressure;altitude;pressure_sealevel;temperature;humidity
18784;BME280;9520;50.954;6.968;2022-08-19T00:00:09;100698.69;;;28.63;43.31
18784;BME280;9520;50.954;6.968;2022-08-19T00:00:35;100694.13;;;28.63;43.17
18784;BME280;9520;50.954;6.968;2022-08-19T00:00:57;100700.72;;;28.61;43.17
18784;BME280;9520;50.954;6.968;2022-08-19T00:01:20;100698.97;;;28.60;43.30
18784;BME280;9520;50.954;6.968;2022-08-19T00:01:52;100687.94;;;28.52;43.04
18784;BME280;9520;50.954;6.968;2022-08-19T00:02:16;100696.41;;;28.58;43.12
18784;BME280;9520;50.954;6.968;2022-08-19T00:02:38;100702.69;;;28.59;43.19
18784;BME280;9520;50.954;6.968;2022-08-19T00:03:10;100700.97;;;28.58;43.59
18784;BME280;9520;50.954;6.968;2022-08-19T00:03:32;100704.66;;;28.57;43.33
18784;BME280;9520;50.954;6.968;2022-08-19T00:03:53;100700.97;;;28.58;43.37
18784;BME280;9520;50.954;6.968;2022-08-19T00:04:19;100691.25;;;28.55;43.44
18784;BME280;9520;50.954;6.968;2022-08-19T00:04:41;100697.69;;;28.54;43.64
18784;BME280;9520;50.954;6.968;2022-08-19T00:05:04;100696.06;;;28.52;43.29
18784;BME280;9520;50.954;6.968;2022-08-19T00:05:26;100702.97;;;28.56;43.36
18784;BME280;9520;50.954;6.968;2022-08-19T00:05:48;100701.38;;;28.53;43.60
18784;BME280;9520;50.954;6.968;2022-08-19T00:06:10;100700.50;;;28.53;43.47
18784;BME280;9520;50.954;6.968;2022-08-19T00:06:34;100698.09;;;28.50;43.42
18784;BME280;9520;50.954;6.968;2022-08-19T00:06:57;100699.66;;;28.52;43.52
18784;BME280;9520;50.954;6.968;2022-08-19T00:07:20;100693.66;;;28.49;43.55
18784;BME280;9520;50.954;6.968;2022-08-19T00:07:43;100697.81;;;28.53;43.29
18784;BME280;9520;50.954;6.968;2022-08-19T00:08:05;100702.38;;;28.52;43.20
18784;BME280;9520;50.954;6.968;2022-08-19T00:08:26;100698.09;;;28.50;43.44
18784;BME280;9520;50.954;6.968;2022-08-19T00:08:48;100690.66;;;28.52;43.49
18784;BME280;9520;50.954;6.968;2022-08-19T00:09:16;100701.25;;;28.55;43.43
18784;BME280;9520;50.954;6.968;2022-08-19T00:09:38;100710.38;;;28.54;43.07
18784;BME280;9520;50.954;6.968;2022-08-19T00:10:00;100708.41;;;28.56;43.32
18784;BME280;9520;50.954;6.968;2022-08-19T00:10:22;100699.41;;;28.55;43.51
18784;BME280;9520;50.954;6.968;2022-08-19T00:10:45;100704.81;;;28.55;43.45
18784;BME280;9520;50.954;6.968;2022-08-19T00:11:07;100705.53;;;28.57;43.34
18784;BME280;9520;50.954;6.968;2022-08-19T00:11:39;100709.09;;;28.58;43.33
18784;BME280;9520;50.954;6.968;2022-08-19T00:12:02;100709.97;;;28.58;43.30
18784;BME280;9520;50.954;6.968;2022-08-19T00:12:24;100696.41;;;28.58;43.22
18784;BME280;9520;50.954;6.968;2022-08-19T00:12:46;100705.53;;;28.57;43.25
18784;BME280;9520;50.954;6.968;2022-08-19T00:13:08;100699.25;;;28.57;43.20
18784;BME280;9520;50.954;6.968;2022-08-19T00:13:31;100696.94;;;28.52;43.23
18784;BME280;9520;50.954;6.968;2022-08-19T00:13:54;100704.66;;;28.57;43.16
18784;BME280;9520;50.954;6.968;2022-08-19T00:14:17;100702.97;;;28.56;43.47
18784;BME280;9520;50.954;6.968;2022-08-19T00:14:39;100697.69;;;28.54;43.49
18784;BME280;9520;50.954;6.968;2022-08-19T00:15:03;100696.94;;;28.52;43.44
18784;BME280;9520;50.954;6.968;2022-08-19T00:15:32;100695.81;;;28.55;43.58
18784;BME280;9520;50.954;6.968;2022-08-19T00:15:53;100693.09;;;28.55;43.37
18784;BME280;9520;50.954;6.968;2022-08-19T00:16:15;100690.41;;;28.55;43.29
18784;BME280;9520;50.954;6.968;2022-08-19T00:16:38;100703.97;;;28.55;43.53
18784;BME280;9520;50.954;6.968;2022-08-19T00:17:01;100696.69;;;28.55;43.49
18784;BME280;9520;50.954;6.968;2022-08-19T00:17:24;100688.78;;;28.52;43.59
18784;BME280;9520;50.954;6.968;2022-08-19T00:17:46;100700.25;;;28.56;43.42
18784;BME280;9520;50.954;6.968;2022-08-19T00:18:08;100701.94;;;28.57;43.28
18784;BME280;9520;50.954;6.968;2022-08-19T00:18:31;100699.25;;;28.57;43.27
18784;BME280;9520;50.954;6.968;2022-08-19T00:18:53;100699.25;;;28.57;43.41
18784;BME280;9520;50.954;6.968;2022-08-19T00:19:15;100697.69;;;28.54;43.69
18784;BME280;9520;50.954;6.968;2022-08-19T00:19:39;100689.22;;;28.48;43.54
18784;BME280;9520;50.954;6.968;2022-08-19T00:20:02;100701.13;;;28.56;43.49
18784;BME280;9520;50.954;6.968;2022-08-19T00:20:24;100696.69;;;28.55;43.62
18784;BME280;9520;50.954;6.968;2022-08-19T00:20:47;100691.38;;;28.54;43.46
18784;BME280;9520;50.954;6.968;2022-08-19T00:21:51;100694.38;;;28.51;43.56
18784;BME280;9520;50.954;6.968;2022-08-19T00:22:15;100702.38;;;28.52;43.15
18784;BME280;9520;50.954;6.968;2022-08-19T00:22:39;100699.81;;;28.51;43.40
18784;BME280;9520;50.954;6.968;2022-08-19T00:23:02;100700.69;;;28.51;43.46
18784;BME280;9520;50.954;6.968;2022-08-19T00:23:24;100699.81;;;28.51;43.65
18784;BME280;9520;50.954;6.968;2022-08-19T00:23:47;100698.94;;;28.50;43.47
18784;BME280;9520;50.954;6.968;2022-08-19T00:24:12;100693.66;;;28.49;43.38
18784;BME280;9520;50.954;6.968;2022-08-19T00:24:35;100693.53;;;28.50;43.45
18784;BME280;9520;50.954;6.968;2022-08-19T00:24:59;100694.38;;;28.51;43.33
18784;BME280;9520;50.954;6.968;2022-08-19T00:25:22;100698.22;;;28.48;43.20
18784;BME280;9520;50.954;6.968;2022-08-19T00:25:51;100693.53;;;28.50;43.54
18784;BME280;9520;50.954;6.968;2022-08-19T00:26:13;100700.06;;;28.48;43.48
18784;BME280;9520;50.954;6.968;2022-08-19T00:26:37;100703.81;;;28.47;43.40
18784;BME280;9520;50.954;6.968;2022-08-19T00:26:59;100689.38;;;28.46;43.29
18784;BME280;9520;50.954;6.968;2022-08-19T00:27:43;100704.50;;;28.49;43.27
18784;BME280;9520;50.954;6.968;2022-08-19T00:28:05;100697.34;;;28.48;43.41
18784;BME280;9520;50.954;6.968;2022-08-19T00:28:27;100702.53;;;28.51;43.37
18784;BME280;9520;50.954;6.968;2022-08-19T00:28:49;100696.94;;;28.52;43.44
18784;BME280;9520;50.954;6.968;2022-08-19T00:29:13;100702.38;;;28.52;43.47
18784;BME280;9520;50.954;6.968;2022-08-19T00:29:37;100705.25;;;28.51;43.41
18784;BME280;9520;50.954;6.968;2022-08-19T00:29:59;100693.66;;;28.49;43.36
18784;BME280;9520;50.954;6.968;2022-08-19T00:30:21;100704.38;;;28.50;43.21
18784;BME280;9520;50.954;6.968;2022-08-19T00:30:43;100706.34;;;28.48;43.31
18784;BME280;9520;50.954;6.968;2022-08-19T00:31:07;100710.06;;;28.47;43.39
18784;BME280;9520;50.954;6.968;2022-08-19T00:31:29;100701.22;;;28.45;43.42
18784;BME280;9520;50.954;6.968;2022-08-19T00:31:52;100696.78;;;28.44;43.54
18784;BME280;9520;50.954;6.968;2022-08-19T00:32:16;100704.78;;;28.46;43.32
18784;BME280;9520;50.954;6.968;2022-08-19T00:32:39;100702.94;;;28.46;43.43
18784;BME280;9520;50.954;6.968;2022-08-19T00:33:01;100709.38;;;28.45;43.74
18784;BME280;9520;50.954;6.968;2022-08-19T00:33:23;100702.22;;;28.44;43.45
18784;BME280;9520;50.954;6.968;2022-08-19T00:33:46;100706.78;;;28.44;43.44
18784;BME280;9520;50.954;6.968;2022-08-19T00:34:07;100700.63;;;28.42;43.79
18784;BME280;9520;50.954;6.968;2022-08-19T00:34:29;100700.63;;;28.42;43.71
18784;BME280;9520;50.954;6.968;2022-08-19T00:34:51;100703.34;;;28.42;43.59
18784;BME280;9520;50.954;6.968;2022-08-19T00:35:14;100681.75;;;28.30;43.42
18784;BME280;9520;50.954;6.968;2022-08-19T00:35:37;100706.91;;;28.42;43.66
18784;BME280;9520;50.954;6.968;2022-08-19T00:36:00;100694.75;;;28.37;43.60
18784;BME280;9520;50.954;6.968;2022-08-19T00:36:22;100696.19;;;28.41;43.38
18784;BME280;9520;50.954;6.968;2022-08-19T00:36:45;100690.03;;;28.39;43.45
18784;BME280;9520;50.954;6.968;2022-08-19T00:37:06;100701.75;;;28.39;43.56
18784;BME280;9520;50.954;6.968;2022-08-19T00:37:28;100700.91;;;28.39;43.52
18784;BME280;9520;50.954;6.968;2022-08-19T00:37:50;100692.06;;;28.37;43.96
18784;BME280;9520;50.954;6.968;2022-08-19T00:38:13;100696.75;;;28.34;43.84
18784;BME280;9520;50.954;6.968;2022-08-19T00:38:36;100695.75;;;28.36;43.75
18784;BME280;9520;50.954;6.968;2022-08-19T00:38:58;100700.19;;;28.37;43.53
18784;BME280;9520;50.954;6.968;2022-08-19T00:39:20;100692.06;;;28.37;43.65
18784;BME280;9520;50.954;6.968;2022-08-19T00:39:44;100685.88;;;28.34;43.86
18784;BME280;9520;50.954;6.968;2022-08-19T00:40:11;100696.63;;;28.36;43.78
18784;BME280;9520;50.954;6.968;2022-08-19T00:40:34;100703.72;;;28.37;43.40
18784;BME280;9520;50.954;6.968;2022-08-19T00:40:56;100702.16;;;28.34;43.72
18784;BME280;9520;50.954;6.968;2022-08-19T00:41:20;100680.88;;;28.30;43.43
18784;BME280;9520;50.954;6.968;2022-08-19T00:41:43;100694.16;;;28.33;43.45
18784;BME280;9520;50.954;6.968;2022-08-19T00:42:08;100698.59;;;28.34;43.53
18784;BME280;9520;50.954;6.968;2022-08-19T00:42:30;100702.28;;;28.33;44.26
18784;BME280;9520;50.954;6.968;2022-08-19T00:42:52;100688.72;;;28.33;43.78
18784;BME280;9520;50.954;6.968;2022-08-19T00:43:20;100690.88;;;28.29;43.74
18784;BME280;9520;50.954;6.968;2022-08-19T00:43:43;100677.72;;;28.25;43.85
18784;BME280;9520;50.954;6.968;2022-08-19T00:44:07;100691.31;;;28.34;43.67
18784;BME280;9520;50.954;6.968;2022-08-19T00:44:29;100692.59;;;28.30;43.90
18784;BME280;9520;50.954;6.968;2022-08-19T00:44:51;100689.72;;;28.32;43.81
18784;BME280;9520;50.954;6.968;2022-08-19T00:45:17;100698.00;;;28.30;44.12
18784;BME280;9520;50.954;6.968;2022-08-19T00:45:39;100694.56;;;28.28;43.96
18784;BME280;9520;50.954;6.968;2022-08-19T00:46:03;100695.44;;;28.29;44.00
18784;BME280;9520;50.954;6.968;2022-08-19T00:46:26;100689.88;;;28.30;44.00
18784;BME280;9520;50.954;6.968;2022-08-19T00:46:50;100690.88;;;28.29;43.65
18784;BME280;9520;50.954;6.968;2022-08-19T00:47:19;100690.88;;;28.29;43.82
18784;BME280;9520;50.954;6.968;2022-08-19T00:47:41;100692.84;;;28.27;43.99
18784;BME280;9520;50.954;6.968;2022-08-19T00:48:03;100693.69;;;28.28;44.10
18784;BME280;9520;50.954;6.968;2022-08-19T00:48:35;100687.41;;;28.27;43.89
18784;BME280;9520;50.954;6.968;2022-08-19T00:48:58;100690.00;;;28.29;43.96
18784;BME280;9520;50.954;6.968;2022-08-19T00:49:23;100690.88;;;28.29;43.86
18784;BME280;9520;50.954;6.968;2022-08-19T00:49:49;100687.41;;;28.27;43.75
18784;BME280;9520;50.954;6.968;2022-08-19T00:50:15;100689.44;;;28.25;43.88
18784;BME280;9520;50.954;6.968;2022-08-19T00:50:39;100696.69;;;28.25;43.89
18784;BME280;9520;50.954;6.968;2022-08-19T00:51:12;100691.16;;;28.26;43.67
18784;BME280;9520;50.954;6.968;2022-08-19T00:51:35;100689.44;;;28.25;43.92
18784;BME280;9520;50.954;6.968;2022-08-19T00:52:00;100694.00;;;28.25;43.84
18784;BME280;9520;50.954;6.968;2022-08-19T00:52:25;100696.56;;;28.26;44.24
18784;BME280;9520;50.954;6.968;2022-08-19T00:52:50;100700.16;;;28.27;43.63
18784;BME280;9520;50.954;6.968;2022-08-19T00:53:15;100687.13;;;28.21;43.72
18784;BME280;9520;50.954;6.968;2022-08-19T00:53:38;100691.84;;;28.28;43.84
18784;BME280;9520;50.954;6.968;2022-08-19T00:54:02;100692.84;;;28.27;43.81
18784;BME280;9520;50.954;6.968;2022-08-19T00:54:24;100702.00;;;28.26;43.89
18784;BME280;9520;50.954;6.968;2022-08-19T00:54:53;100694.13;;;28.23;43.72
18784;BME280;9520;50.954;6.968;2022-08-19T00:55:17;100697.28;;;28.28;43.97
18784;BME280;9520;50.954;6.968;2022-08-19T00:55:40;100696.56;;;28.26;44.01
18784;BME280;9520;50.954;6.968;2022-08-19T00:56:04;100695.84;;;28.24;44.20
18784;BME280;9520;50.954;6.968;2022-08-19T00:56:27;100699.28;;;28.26;43.75
18784;BME280;9520;50.954;6.968;2022-08-19T00:56:50;100703.56;;;28.29;44.06
18784;BME280;9520;50.954;6.968;2022-08-19T00:57:17;100702.00;;;28.26;43.79
18784;BME280;9520;50.954;6.968;2022-08-19T00:57:44;100705.41;;;28.28;43.57
18784;BME280;9520;50.954;6.968;2022-08-19T00:58:10;100692.00;;;28.27;43.87
18784;BME280;9520;50.954;6.968;2022-08-19T00:58:35;100702.72;;;28.28;43.80
18784;BME280;9520;50.954;6.968;2022-08-19T00:58:58;100693.00;;;28.26;43.63
18784;BME280;9520;50.954;6.968;2022-08-19T00:59:23;100700.84;;;28.29;43.81
18784;BME280;9520;50.954;6.968;2022-08-19T01:00:07;100698.28;;;28.27;43.52
18784;BME280;9520;50.954;6.968;2022-08-19T01:00:31;100695.44;;;28.29;43.39
18784;BME280;9520;50.954;6.968;2022-08-19T01:00:58;100698.13;;;28.29;43.71
18784;BME280;9520;50.954;6.968;2022-08-19T01:01:20;100693.56;;;28.29;43.60
18784;BME280;9520;50.954;6.968;2022-08-19T01:01:43;100697.28;;;28.28;43.88
18784;BME280;9520;50.954;6.968;2022-08-19T01:02:06;100693.25;;;28.23;43.66
18784;BME280;9520;50.954;6.968;2022-08-19T01:02:29;100688.44;;;28.26;43.85
18784;BME280;9520;50.954;6.968;2022-08-19T01:02:53;100699.28;;;28.26;43.59
18784;BME280;9520;50.954;6.968;2022-08-19T01:03:17;100693.69;;;28.28;43.73
18784;BME280;9520;50.954;6.968;2022-08-19T01:03:39;100694.56;;;28.28;43.61
18784;BME280;9520;50.954;6.968;2022-08-19T01:04:19;100699.13;;;28.28;43.67
18784;BME280;9520;50.954;6.968;2022-08-19T01:04:42;100699.00;;;28.29;43.72
18784;BME280;9520;50.954;6.968;2022-08-19T01:05:07;100703.69;;;28.27;43.58
18784;BME280;9520;50.954;6.968;2022-08-19T01:05:30;100702.88;;;28.27;43.69
18784;BME280;9520;50.954;6.968;2022-08-19T01:05:54;100703.00;;;28.25;44.03
18784;BME280;9520;50.954;6.968;2022-08-19T01:06:16;100703.00;;;28.25;43.69
18784;BME280;9520;50.954;6.968;2022-08-19T01:06:41;100706.41;;;28.27;43.52
18784;BME280;9520;50.954;6.968;2022-08-19T01:07:05;100703.84;;;28.26;43.84
18784;BME280;9520;50.954;6.968;2022-08-19T01:07:28;100701.25;;;28.24;43.59
18784;BME280;9520;50.954;6.968;2022-08-19T01:08:00;100702.41;;;28.22;43.70
18784;BME280;9520;50.954;6.968;2022-08-19T01:08:23;100703.97;;;28.24;43.59
18784;BME280;9520;50.954;6.968;2022-08-19T01:08:45;100701.25;;;28.24;43.85
18784;BME280;9520;50.954;6.968;2022-08-19T01:09:10;100703.00;;;28.25;43.92
18784;BME280;9520;50.954;6.968;2022-08-19T01:09:32;100700.41;;;28.24;44.08
18784;BME280;9520;50.954;6.968;2022-08-19T01:09:55;100702.13;;;28.25;43.85
18784;BME280;9520;50.954;6.968;2022-08-19T01:10:20;100699.69;;;28.22;43.78
18784;BME280;9520;50.954;6.968;2022-08-19T01:10:47;100702.25;;;28.23;44.04
18784;BME280;9520;50.954;6.968;2022-08-19T01:11:10;100704.84;;;28.25;43.69
18784;BME280;9520;50.954;6.968;2022-08-19T01:11:35;100706.69;;;28.24;43.46
18784;BME280;9520;50.954;6.968;2022-08-19T01:11:57;100710.28;;;28.25;43.54
18784;BME280;9520;50.954;6.968;2022-08-19T01:12:21;100706.56;;;28.26;43.37
18784;BME280;9520;50.954;6.968;2022-08-19T01:12:45;100700.28;;;28.25;43.48
18784;BME280;9520;50.954;6.968;2022-08-19T01:13:07;100699.53;;;28.23;43.62
18784;BME280;9520;50.954;6.968;2022-08-19T01:13:32;100705.72;;;28.25;43.67
18784;BME280;9520;50.954;6.968;2022-08-19T01:14:11;100702.88;;;28.27;43.71
18784;BME280;9520;50.954;6.968;2022-08-19T01:14:35;100703.69;;;28.27;43.84
18784;BME280;9520;50.954;6.968;2022-08-19T01:14:58;100702.00;;;28.26;44.37
18784;BME280;9520;50.954;6.968;2022-08-19T01:15:25;100701.25;;;28.24;44.21
18784;BME280;9520;50.954;6.968;2022-08-19T01:15:50;100703.25;;;28.22;43.51
18784;BME280;9520;50.954;6.968;2022-08-19T01:16:14;100700.53;;;28.22;43.64
18784;BME280;9520;50.954;6.968;2022-08-19T01:16:39;100696.56;;;28.26;43.70
18784;BME280;9520;50.954;6.968;2022-08-19T01:17:02;100701.25;;;28.24;43.69
18784;BME280;9520;50.954;6.968;2022-08-19T01:17:24;100697.69;;;28.24;43.82
18784;BME280;9520;50.954;6.968;2022-08-19T01:17:48;100697.38;;;28.17;43.91
18784;BME280;9520;50.954;6.968;2022-08-19T01:18:13;100701.81;;;28.18;43.89
18784;BME280;9520;50.954;6.968;2022-08-19T01:18:38;100698.97;;;28.20;43.73
18784;BME280;9520;50.954;6.968;2022-08-19T01:19:01;100706.38;;;28.18;43.81
18784;BME280;9520;50.954;6.968;2022-08-19T01:19:28;100704.78;;;28.15;44.19
18784;BME280;9520;50.954;6.968;2022-08-19T01:20:05;100709.66;;;28.12;44.21
18784;BME280;9520;50.954;6.968;2022-08-19T01:20:27;100701.59;;;28.10;44.13
18784;BME280;9520;50.954;6.968;2022-08-19T01:20:50;100705.03;;;28.12;44.13
18784;BME280;9520;50.954;6.968;2022-08-19T01:21:19;100705.28;;;28.09;44.08
18784;BME280;9520;50.954;6.968;2022-08-19T01:21:52;100706.06;;;28.11;44.21
18784;BME280;9520;50.954;6.968;2022-08-19T01:22:25;100705.03;;;28.12;43.79
18784;BME280;9520;50.954;6.968;2022-08-19T01:22:56;100698.78;;;28.12;43.95
18784;BME280;9520;50.954;6.968;2022-08-19T01:23:18;100691.84;;;28.08;43.83
18784;BME280;9520;50.954;6.968;2022-08-19T01:23:39;100698.78;;;28.12;44.07
18784;BME280;9520;50.954;6.968;2022-08-19T01:24:04;100704.91;;;28.14;43.81
18784;BME280;9520;50.954;6.968;2022-08-19T01:24:28;100704.22;;;28.12;43.87
18784;BME280;9520;50.954;6.968;2022-08-19T01:24:50;100700.34;;;28.14;43.61
18784;BME280;9520;50.954;6.968;2022-08-19T01:25:13;100693.22;;;28.13;43.81
18784;BME280;9520;50.954;6.968;2022-08-19T01:25:41;100688.91;;;28.11;43.82
18784;BME280;9520;50.954;6.968;2022-08-19T01:26:05;100697.94;;;28.11;43.64
18784;BME280;9520;50.954;6.968;2022-08-19T01:26:28;100691.59;;;28.11;43.94
18784;BME280;9520;50.954;6.968;2022-08-19T01:26:51;100699.63;;;28.12;43.89
18784;BME280;9520;50.954;6.968;2022-08-19T01:27:14;100690.50;;;28.13;44.00
18784;BME280;9520;50.954;6.968;2022-08-19T01:27:38;100702.22;;;28.14;43.81
18784;BME280;9520;50.954;6.968;2022-08-19T01:28:04;100693.38;;;28.12;43.75
18784;BME280;9520;50.954;6.968;2022-08-19T01:28:31;100693.47;;;28.10;44.22
18784;BME280;9520;50.954;6.968;2022-08-19T01:29:00;100697.16;;;28.09;44.04
18784;BME280;9520;50.954;6.968;2022-08-19T01:29:25;100685.31;;;28.10;43.77
18784;BME280;9520;50.954;6.968;2022-08-19T01:29:47;100686.31;;;28.09;44.12
18784;BME280;9520;50.954;6.968;2022-08-19T01:30:12;100693.59;;;28.09;44.23
18784;BME280;9520;50.954;6.968;2022-08-19T01:30:35;100695.44;;;28.08;43.93
18784;BME280;9520;50.954;6.968;2022-08-19T01:30:57;100687.16;;;28.10;43.86
18784;BME280;9520;50.954;6.968;2022-08-19T01:31:22;100698.88;;;28.10;43.94
18784;BME280;9520;50.954;6.968;2022-08-19T01:31:48;100692.59;;;28.10;43.79
18784;BME280;9520;50.954;6.968;2022-08-19T01:32:16;100683.72;;;28.08;43.78
18784;BME280;9520;50.954;6.968;2022-08-19T01:32:54;100682.72;;;28.09;43.80
18784;BME280;9520;50.954;6.968;2022-08-19T01:33:16;100683.34;;;28.12;43.79
18784;BME280;9520;50.954;6.968;2022-08-19T01:33:39;100687.78;;;28.13;43.68
18784;BME280;9520;50.954;6.968;2022-08-19T01:34:01;100682.72;;;28.09;44.08
18784;BME280;9520;50.954;6.968;2022-08-19T01:34:23;100673.72;;;28.08;43.93
18784;BME280;9520;50.954;6.968;2022-08-19T01:34:45;100682.50;;;28.12;44.10
18784;BME280;9520;50.954;6.968;2022-08-19T01:35:09;100683.34;;;28.12;43.93
18784;BME280;9520;50.954;6.968;2022-08-19T01:35:31;100678.78;;;28.13;43.74
18784;BME280;9520;50.954;6.968;2022-08-19T01:35:53;100692.22;;;28.14;44.04
18784;BME280;9520;50.954;6.968;2022-08-19T01:36:22;100684.09;;;28.14;43.93
18784;BME280;9520;50.954;6.968;2022-08-19T01:36:46;100681.66;;;28.11;43.76
18784;BME280;9520;50.954;6.968;2022-08-19T01:37:11;100684.22;;;28.13;43.82
18784;BME280;9520;50.954;6.968;2022-08-19T01:37:43;100686.06;;;28.12;44.14
18784;BME280;9520;50.954;6.968;2022-08-19T01:38:07;100678.94;;;28.11;44.03
18784;BME280;9520;50.954;6.968;2022-08-19T01:38:35;100679.81;;;28.12;43.97
18784;BME280;9520;50.954;6.968;2022-08-19T01:39:08;100684.38;;;28.11;43.79
18784;BME280;9520;50.954;6.968;2022-08-19T01:39:30;100686.19;;;28.11;43.76
18784;BME280;9520;50.954;6.968;2022-08-19T01:39:52;100688.03;;;28.10;43.80
18784;BME280;9520;50.954;6.968;2022-08-19T01:40:15;100680.75;;;28.11;43.80
18784;BME280;9520;50.954;6.968;2022-08-19T01:40:39;100679.16;;;28.08;44.00
18784;BME280;9520;50.954;6.968;2022-08-19T01:41:01;100677.19;;;28.10;43.81
18784;BME280;9520;50.954;6.968;2022-08-19T01:41:31;100682.88;;;28.07;44.23
18784;BME280;9520;50.954;6.968;2022-08-19T01:41:54;100684.75;;;28.07;44.23
18784;BME280;9520;50.954;6.968;2022-08-19T01:42:16;100678.44;;;28.06;44.19
18784;BME280;9520;50.954;6.968;2022-08-19T01:42:38;100676.72;;;28.05;44.01
18784;BME280;9520;50.954;6.968;2022-08-19T01:43:00;100673.91;;;28.07;44.07
18784;BME280;9520;50.954;6.968;2022-08-19T01:43:24;100688.56;;;28.04;44.25
18784;BME280;9520;50.954;6.968;2022-08-19T01:43:45;100680.56;;;28.03;44.48
18784;BME280;9520;50.954;6.968;2022-08-19T01:44:27;100676.28;;;28.00;44.32
18784;BME280;9520;50.954;6.968;2022-08-19T01:44:50;100682.44;;;28.02;44.27
18784;BME280;9520;50.954;6.968;2022-08-19T01:45:11;100681.69;;;28.00;44.21
18784;BME280;9520;50.954;6.968;2022-08-19T01:45:34;100681.69;;;28.00;44.16
18784;BME280;9520;50.954;6.968;2022-08-19T01:45:56;100686.13;;;28.01;44.28
18784;BME280;9520;50.954;6.968;2022-08-19T01:46:18;100684.41;;;28.00;44.48
18784;BME280;9520;50.954;6.968;2022-08-19T01:46:47;100678.25;;;27.98;44.28
18784;BME280;9520;50.954;6.968;2022-08-19T01:47:09;100682.69;;;27.99;44.16
18784;BME280;9520;50.954;6.968;2022-08-19T01:47:31;100662.09;;;27.87;44.20
18784;BME280;9520;50.954;6.968;2022-08-19T01:47:54;100677.25;;;27.99;44.15
18784;BME280;9520;50.954;6.968;2022-08-19T01:48:23;100673.84;;;27.97;44.05
18784;BME280;9520;50.954;6.968;2022-08-19T01:48:46;100681.97;;;27.97;44.52
18784;BME280;9520;50.954;6.968;2022-08-19T01:49:08;100675.53;;;27.98;44.24
18784;BME280;9520;50.954;6.968;2022-08-19T01:49:31;100676.41;;;27.99;44.29
18784;BME280;9520;50.954;6.968;2022-08-19T01:49:53;100679.25;;;27.97;44.51
18784;BME280;9520;50.954;6.968;2022-08-19T01:50:16;100668.94;;;27.91;44.21
18784;BME280;9520;50.954;6.968;2022-08-19T01:50:38;100679.25;;;27.97;44.41
18784;BME280;9520;50.954;6.968;2022-08-19T01:51:00;100671.25;;;27.96;44.46
18784;BME280;9520;50.954;6.968;2022-08-19T01:51:22;100680.25;;;27.96;44.43
18784;BME280;9520;50.954;6.968;2022-08-19T01:51:45;100680.38;;;27.95;44.36
18784;BME280;9520;50.954;6.968;2022-08-19T01:52:07;100656.31;;;27.80;44.68
18784;BME280;9520;50.954;6.968;2022-08-19T01:52:29;100658.91;;;27.82;44.47
18784;BME280;9520;50.954;6.968;2022-08-19T01:52:52;100670.94;;;27.89;44.30
18784;BME280;9520;50.954;6.968;2022-08-19T01:53:26;100676.50;;;27.87;44.83
18784;BME280;9520;50.954;6.968;2022-08-19T01:53:54;100671.19;;;27.86;44.86
18784;BME280;9520;50.954;6.968;2022-08-19T01:54:17;100660.16;;;27.78;44.61
18784;BME280;9520;50.954;6.968;2022-08-19T01:54:48;100672.06;;;27.86;44.50
18784;BME280;9520;50.954;6.968;2022-08-19T01:55:14;100664.59;;;27.79;44.57
18784;BME280;9520;50.954;6.968;2022-08-19T01:55:41;100660.75;;;27.81;44.47
18784;BME280;9520;50.954;6.968;2022-08-19T01:56:06;100675.19;;;27.82;45.02
18784;BME280;9520;50.954;6.968;2022-08-19T01:56:30;100674.31;;;27.81;44.81
18784;BME280;9520;50.954;6.968;2022-08-19T01:56:55;100660.56;;;27.73;44.76
18784;BME280;9520;50.954;6.968;2022-08-19T01:57:19;100678.88;;;27.81;44.89
18784;BME280;9520;50.954;6.968;2022-08-19T01:57:44;100670.88;;;27.79;45.05
18784;BME280;9520;50.954;6.968;2022-08-19T01:58:12;100678.31;;;27.77;44.73
18784;BME280;9520;50.954;6.968;2022-08-19T01:58:40;100674.56;;;27.78;44.81
18784;BME280;9520;50.954;6.968;2022-08-19T01:59:05;100675.72;;;27.76;44.71
18784;BME280;9520;50.954;6.968;2022-08-19T01:59:32;100667.13;;;27.71;45.09
18784;BME280;9520;50.954;6.968;2022-08-19T02:00:01;100672.25;;;27.74;45.23
18784;BME280;9520;50.954;6.968;2022-08-19T02:00:46;100677.97;;;27.71;44.92
18784;BME280;9520;50.954;6.968;2022-08-19T02:01:09;100675.25;;;27.71;45.07
18784;BME280;9520;50.954;6.968;2022-08-19T02:01:32;100684.25;;;27.71;44.73
18784;BME280;9520;50.954;6.968;2022-08-19T02:01:56;100679.53;;;27.73;44.81
18784;BME280;9520;50.954;6.968;2022-08-19T02:02:17;100674.09;;;27.73;44.68
18784;BME280;9520;50.954;6.968;2022-08-19T02:02:39;100680.16;;;27.77;44.69
18784;BME280;9520;50.954;6.968;2022-08-19T02:03:04;100679.13;;;27.78;44.61
18784;BME280;9520;50.954;6.968;2022-08-19T02:03:27;100682.84;;;27.77;44.90
18784;BME280;9520;50.954;6.968;2022-08-19T02:03:50;100686.28;;;27.79;44.43
18784;BME280;9520;50.954;6.968;2022-08-19T02:04:17;100680.84;;;27.79;44.63
18784;BME280;9520;50.954;6.968;2022-08-19T02:04:40;100689.84;;;27.79;44.84
18784;BME280;9520;50.954;6.968;2022-08-19T02:05:02;100680.16;;;27.77;44.83
18784;BME280;9520;50.954;6.968;2022-08-19T02:05:24;100686.28;;;27.79;45.00
18784;BME280;9520;50.954;6.968;2022-08-19T02:05:46;100690.72;;;27.80;45.04
18784;BME280;9520;50.954;6.968;2022-08-19T02:06:09;100690.72;;;27.80;45.13
18784;BME280;9520;50.954;6.968;2022-08-19T02:06:33;100693.53;;;27.78;44.91
18784;BME280;9520;50.954;6.968;2022-08-19T02:06:55;100681.13;;;27.76;45.03
18784;BME280;9520;50.954;6.968;2022-08-19T02:07:19;100693.69;;;27.77;45.05
18784;BME280;9520;50.954;6.968;2022-08-19T02:07:41;100686.69;;;27.74;44.85
18784;BME280;9520;50.954;6.968;2022-08-19T02:08:06;100690.25;;;27.75;45.07
18784;BME280;9520;50.954;6.968;2022-08-19T02:08:28;100685.22;;;27.70;45.46
18784;BME280;9520;50.954;6.968;2022-08-19T02:08:50;100688.81;;;27.71;45.30
18784;BME280;9520;50.954;6.968;2022-08-19T02:09:18;100691.63;;;27.69;45.26
18784;BME280;9520;50.954;6.968;2022-08-19T02:09:40;100697.91;;;27.70;45.25